Nearby METAR Reports

 

EGNV - Tees-Side, United Kingdom
Distance from station: W 8mi, 13km
Updated: 17/07/2019 21:50
NOT Current
Nearby showers, Partly cloudy
Nearby showers, Partly cloudy
 Wind from S
Wind: S 8 mph , 13 km/h
Temperature: 15°C
Dew Point: 13°C
Humidity: 88%
Barometer: 1008 hPa
Summary: Nearby Showers
Clouds: Partly cloudy
Visibility: 6 miles , 10 km
Cloud details: Few Clouds 762 m
Partly cloudy 1311 m
2019/07/17 20:50 EGNV 172050Z 18007KT 9999 VCSH FEW025 SCT043 15/13 Q1008
EGXE - Leeming Raf, United Kingdom
Distance from station: SW 21mi, 34km
Updated: 18/07/2019 02:50
Mostly cloudy
Mostly cloudy
 Wind from SSE
Wind: SSE 12 mph , 19 km/h
Temperature: 16°C
Dew Point: 14°C
Humidity: 88%
Barometer: 1006 hPa
Clouds: Mostly cloudy
Visibility: 6 miles , 10 km
Cloud details: Mostly cloudy 488 m
Mostly cloudy 1524 m
2019/07/18 01:50 EGXE 180150Z AUTO 16010KT 9999 BKN016/// BKN050/// 16/14 Q1006
 
EGXZ - Topcliffe Raf, United Kingdom
Distance from station: SSW 24mi, 38km
Updated: 18/07/2019 02:50
Mostly cloudy
Mostly cloudy
 Wind from SE
Wind: SE 8 mph , 13 km/h
Temperature: 15°C
Dew Point: 14°C
Humidity: 94%
Barometer: 1006 hPa
Clouds: Mostly cloudy
Visibility: 6 miles , 10 km
Cloud details: Mostly cloudy 518 m
2019/07/18 01:50 EGXZ 180150Z AUTO 14007KT 9999 BKN017/// 15/14 Q1006 RERA
EGXD - Dishforth Raf, United Kingdom
Distance from station: SSW 29mi, 46km
Updated: 06/06/2016 10:50
NOT Current
Clear
Clear
 Wind from SSE
Wind: SSE 5 mph , 7 km/h
Temperature: 18°C
Dew Point: 11°C
Humidity: 64%
Barometer: 1023 hPa
Clouds: Clear
Visibility: 6 miles , 10 km
2016/06/06 09:50 EGXD 060950Z AUTO 16004KT 9999 // NCD 18/11 Q1023
 
EGXU - Linton-On-Ouse R, United Kingdom
Distance from station: S 33mi, 53km
Updated: 18/07/2019 02:50
Mostly cloudy
Mostly cloudy
 Wind from SSE
Wind: SSE 8 mph , 13 km/h
Temperature: 16°C
Dew Point: 14°C
Humidity: 88%
Barometer: 1006 hPa
Clouds: Mostly cloudy
Visibility: 6 miles , 10 km
Cloud details: Partly cloudy 610 m
Mostly cloudy 762 m
2019/07/18 01:50 EGXU 180150Z AUTO 16007KT 9999 // SCT020/// BKN025/// 16/14 Q1006
EGNT - Newcastle, United Kingdom
Distance from station: NNW 39mi, 63km
Updated: 18/07/2019 03:20
Few Clouds
Few Clouds
 Wind from varies
Wind: varies 3 mph , 6 km/h
Temperature: 14°C
Dew Point: 14°C
Humidity: 100%
Barometer: 1004 hPa
Clouds: Few Clouds
Visibility: 6 miles , 10 km
Cloud details: Few Clouds 610 m
2019/07/18 02:20 EGNT 180220Z VRB03KT 9999 FEW020 14/14 Q1004
 
EGNM - Leeds And Bradfo, United Kingdom
Distance from station: SSW 49mi, 79km
Updated: 18/07/2019 03:20
Mostly cloudy
Mostly cloudy
 Wind from SW
Wind: SW 6 mph , 9 km/h
Temperature: 15°C
Dew Point: 13°C
Humidity: 88%
Barometer: 1006 hPa
Clouds: Mostly cloudy
Visibility: 6 miles , 10 km
Cloud details: Mostly cloudy 274 m
2019/07/18 02:20 EGNM 180220Z 22005KT 170V250 9999 BKN009 15/13 Q1006